Time;durP1;ratioP1;P1;durP2;ratioP2;P2;SDS_P1;SDS_P2;PMS_P1;PMS_P2;Temp;Humidity;BMP_temperature;BMP_pressure;BME280_temperature;BME280_humidity;BME280_pressure;Samples;Min_cycle;Max_cycle;Signal;HPM_P1;HPM_P2
2023/02/28 00:01:52;;;;;;;3.05;1.60;;;-0.60;99.90;;;;;;12516921;28;20042;-87
2023/02/28 00:07:55;;;;;;;3.85;2.35;;;-0.80;99.90;;;;;;12480754;28;20042;-87
2023/02/28 00:13:57;;;;;;;4.80;2.22;;;-0.90;99.90;;;;;;12486501;28;20044;-87
2023/02/28 00:20:02;;;;;;;5.63;2.33;;;-0.80;99.90;;;;;;12498301;28;20056;-87
2023/02/28 00:26:04;;;;;;;6.00;2.78;;;-0.90;99.90;;;;;;12480737;28;20505;-86
2023/02/28 00:32:07;;;;;;;6.47;2.80;;;-1.00;99.90;;;;;;12479463;28;20056;-87
2023/02/28 00:38:09;;;;;;;3.80;2.17;;;-1.00;99.90;;;;;;12491980;28;20050;-87
2023/02/28 00:44:11;;;;;;;5.97;2.83;;;-0.90;99.90;;;;;;12484450;28;20136;-87
2023/02/28 00:50:13;;;;;;;6.75;3.03;;;-0.90;99.90;;;;;;12471832;28;20075;-87
2023/02/28 00:56:15;;;;;;;6.13;2.42;;;-0.90;99.90;;;;;;12444479;28;20052;-87
2023/02/28 01:02:17;;;;;;;6.93;2.97;;;-0.90;99.90;;;;;;12459661;28;20639;-86
2023/02/28 01:08:20;;;;;;;6.88;2.88;;;-0.80;99.90;;;;;;12458302;28;20091;-87
2023/02/28 01:14:22;;;;;;;7.30;2.85;;;-0.80;99.90;;;;;;12466073;28;20053;-87
2023/02/28 01:20:24;;;;;;;6.90;2.80;;;-0.70;99.90;;;;;;12463622;28;20053;-87
2023/02/28 01:26:26;;;;;;;6.78;2.70;;;-0.60;99.90;;;;;;12464571;28;20056;-87
2023/02/28 01:32:28;;;;;;;6.60;2.75;;;-0.60;99.90;;;;;;12471929;28;20052;-86
2023/02/28 01:38:30;;;;;;;5.25;2.83;;;-0.70;99.90;;;;;;12466744;28;20046;-87
2023/02/28 01:44:56;;;;;;;4.93;2.35;;;-0.80;99.90;;;;;;12462942;28;20045;-87
2023/02/28 01:51:05;;;;;;;5.47;2.30;;;-0.90;99.90;;;;;;12443531;28;20049;-86
2023/02/28 01:57:14;;;;;;;6.32;2.38;;;-1.00;99.90;;;;;;12455449;28;20050;-86
2023/02/28 02:03:19;;;;;;;5.07;2.50;;;-1.10;99.90;;;;;;12467906;28;20060;-86
2023/02/28 02:09:22;;;;;;;5.47;2.83;;;-1.10;99.90;;;;;;12445692;28;20050;-86
2023/02/28 02:15:48;;;;;;;5.53;2.22;;;-1.10;99.90;;;;;;12461937;28;20079;-87
2023/02/28 02:22:09;;;;;;;5.60;2.20;;;-1.10;99.90;;;;;;12455072;28;20477;-86
2023/02/28 02:28:28;;;;;;;8.30;2.65;;;-1.10;99.90;;;;;;12468710;28;20132;-87
2023/02/28 02:34:36;;;;;;;6.68;2.35;;;-1.10;99.90;;;;;;12464210;28;20482;-86
2023/02/28 02:40:46;;;;;;;8.43;2.38;;;-1.00;99.90;;;;;;12467611;28;20041;-86
2023/02/28 02:46:50;;;;;;;5.15;2.20;;;-1.00;99.90;;;;;;12472320;28;20099;-87
2023/02/28 02:52:57;;;;;;;4.90;2.20;;;-1.10;99.90;;;;;;12440940;28;20047;-87
2023/02/28 02:59:06;;;;;;;5.18;2.30;;;-1.10;99.90;;;;;;12443431;28;20046;-87
2023/02/28 03:05:16;;;;;;;4.72;2.00;;;-1.10;99.90;;;;;;12447441;28;20072;-86
2023/02/28 03:11:20;;;;;;;4.50;2.00;;;-1.10;99.90;;;;;;12437940;28;20053;-87
2023/02/28 03:17:47;;;;;;;7.32;2.55;;;-1.20;99.90;;;;;;12452543;28;20111;-87
2023/02/28 03:24:13;;;;;;;4.65;2.17;;;-1.20;99.90;;;;;;12452272;28;20183;-87
2023/02/28 03:30:29;;;;;;;4.35;2.00;;;-1.30;99.90;;;;;;12443708;28;20099;-87
2023/02/28 03:36:45;;;;;;;5.13;2.00;;;-1.40;99.90;;;;;;12451154;28;20052;-87
2023/02/28 03:42:53;;;;;;;4.85;1.70;;;-1.50;99.90;;;;;;12451542;28;20083;-87
2023/02/28 03:49:07;;;;;;;5.47;2.38;;;-1.50;99.90;;;;;;12444148;28;20045;-87
2023/02/28 03:55:11;;;;;;;5.70;1.92;;;-1.60;99.90;;;;;;12444037;28;20387;-87
2023/02/28 04:01:49;;;;;;;4.13;1.70;;;-1.70;99.90;;;;;;12454269;28;20600;-87
2023/02/28 04:07:52;;;;;;;3.58;1.73;;;-1.70;99.90;;;;;;12377972;28;20045;-87
2023/02/28 04:13:55;;;;;;;4.07;1.57;;;-1.80;99.90;;;;;;12453077;28;20038;-87
2023/02/28 04:19:57;;;;;;;3.63;1.70;;;-1.90;99.90;;;;;;12441578;28;20049;-88
2023/02/28 04:25:59;;;;;;;6.40;1.90;;;-1.90;99.90;;;;;;12416151;28;20096;-87
2023/02/28 04:32:02;;;;;;;3.30;1.48;;;-1.90;99.90;;;;;;12407972;28;20413;-86
2023/02/28 04:38:04;;;;;;;5.50;2.20;;;-1.90;99.90;;;;;;12409207;28;20070;-87
2023/02/28 04:44:06;;;;;;;4.13;1.50;;;-2.00;99.90;;;;;;12404893;28;20053;-87
2023/02/28 04:50:08;;;;;;;3.40;1.35;;;-2.00;99.90;;;;;;12399084;28;20084;-87
2023/02/28 04:56:13;;;;;;;2.90;1.60;;;-2.10;99.90;;;;;;12394431;28;20486;-87
2023/02/28 05:02:15;;;;;;;3.38;1.75;;;-2.20;99.90;;;;;;12408524;28;20506;-87
2023/02/28 05:08:17;;;;;;;2.28;1.40;;;-2.20;99.90;;;;;;12413354;28;20058;-87
2023/02/28 05:14:18;;;;;;;2.67;1.40;;;-2.30;99.90;;;;;;12409717;28;20049;-86
2023/02/28 05:20:20;;;;;;;4.75;1.55;;;-2.30;99.90;;;;;;12412582;28;20096;-87
2023/02/28 05:26:24;;;;;;;4.28;1.60;;;-2.40;99.90;;;;;;12446192;28;20114;-87
2023/02/28 05:32:25;;;;;;;3.28;1.70;;;-2.40;99.90;;;;;;12442281;28;20049;-87
2023/02/28 05:38:27;;;;;;;5.28;1.80;;;-2.40;99.90;;;;;;12451170;28;21221;-87
2023/02/28 05:44:29;;;;;;;6.70;2.17;;;-2.50;99.90;;;;;;12444313;28;20057;-87
2023/02/28 05:50:31;;;;;;;8.68;2.90;;;-2.50;99.90;;;;;;12439980;28;20075;-87
2023/02/28 05:56:38;;;;;;;5.32;3.03;;;-2.50;99.90;;;;;;12426353;28;20045;-87
2023/02/28 06:02:40;;;;;;;7.97;3.97;;;-2.40;99.90;;;;;;12450462;28;20717;-87
2023/02/28 06:08:44;;;;;;;5.28;3.25;;;-2.50;99.90;;;;;;12441451;28;20106;-89
2023/02/28 06:14:46;;;;;;;8.23;3.05;;;-2.50;99.90;;;;;;12456171;28;20061;-88
2023/02/28 06:20:56;;;;;;;6.03;3.20;;;-2.60;99.90;;;;;;12445418;28;20050;-89
2023/02/28 06:27:04;;;;;;;7.45;3.30;;;-2.60;99.90;;;;;;12449200;28;20057;-89
2023/02/28 06:33:06;;;;;;;6.40;3.30;;;-2.50;99.90;;;;;;12453818;28;20057;-89
2023/02/28 06:39:09;;;;;;;5.35;2.60;;;-2.50;99.90;;;;;;12478710;28;20064;-89
2023/02/28 06:45:11;;;;;;;7.68;2.33;;;-2.40;99.90;;;;;;12475938;28;20045;-89
2023/02/28 06:51:16;;;;;;;6.07;2.60;;;-2.30;99.90;;;;;;12477140;28;20098;-89
2023/02/28 06:57:17;;;;;;;6.28;2.63;;;-2.20;99.90;;;;;;12454735;28;20049;-89
2023/02/28 07:03:19;;;;;;;5.70;2.58;;;-2.00;99.90;;;;;;12450533;28;20072;-89
2023/02/28 07:09:21;;;;;;;4.55;2.58;;;-1.70;99.90;;;;;;12438963;28;20504;-89
2023/02/28 07:15:23;;;;;;;4.07;2.15;;;-1.60;99.90;;;;;;12449163;28;20053;-89
2023/02/28 07:21:25;;;;;;;6.80;2.45;;;-1.40;99.90;;;;;;12445460;28;20050;-89
2023/02/28 07:27:27;;;;;;;5.38;2.38;;;-1.10;99.90;;;;;;12465914;28;20624;-89
2023/02/28 07:33:28;;;;;;;3.33;1.90;;;-0.90;99.90;;;;;;12439897;28;20045;-89
2023/02/28 07:39:30;;;;;;;4.65;1.70;;;-0.70;99.90;;;;;;12455289;28;20054;-89
2023/02/28 07:45:34;;;;;;;3.80;1.80;;;-0.40;99.90;;;;;;12433013;28;20072;-89
2023/02/28 07:51:36;;;;;;;4.40;2.20;;;-0.10;99.90;;;;;;12443811;28;20490;-90
2023/02/28 07:57:38;;;;;;;3.10;1.52;;;0.30;99.90;;;;;;12446182;28;20474;-90
2023/02/28 08:03:40;;;;;;;4.25;1.38;;;0.70;99.90;;;;;;12471344;28;20045;-90
2023/02/28 08:09:42;;;;;;;2.97;1.25;;;1.00;99.90;;;;;;12474193;28;20084;-90
2023/02/28 08:15:45;;;;;;;5.00;2.20;;;1.60;99.90;;;;;;12482941;28;20045;-89
2023/02/28 08:21:47;;;;;;;3.60;2.05;;;1.80;99.90;;;;;;12456562;28;20119;-90
2023/02/28 08:27:52;;;;;;;4.25;2.60;;;2.00;99.90;;;;;;12462499;28;20174;-90
2023/02/28 08:33:56;;;;;;;5.72;2.30;;;2.20;99.90;;;;;;12446088;28;20140;-89
2023/02/28 08:39:58;;;;;;;;;;;2.30;99.90;;;;;;12449408;28;20067;-89
2023/02/28 08:46:00;;;;;;;4.22;1.90;;;2.20;99.90;;;;;;12446338;28;19921;-89
2023/02/28 08:52:02;;;;;;;3.53;1.80;;;2.60;99.90;;;;;;12448062;28;20056;-89
2023/02/28 08:58:04;;;;;;;3.20;1.70;;;2.60;99.90;;;;;;12449598;28;20072;-89
2023/02/28 09:04:08;;;;;;;3.22;1.33;;;2.80;99.90;;;;;;12436711;28;20049;-89
2023/02/28 09:10:10;;;;;;;3.33;1.88;;;2.80;99.90;;;;;;12438722;28;20053;-89
2023/02/28 09:16:16;;;;;;;4.60;1.70;;;2.90;99.90;;;;;;12447539;28;20207;-89
2023/02/28 09:22:17;;;;;;;3.95;1.50;;;3.00;99.90;;;;;;12464322;28;20061;-89
2023/02/28 09:28:20;;;;;;;4.18;1.60;;;2.90;99.90;;;;;;12447974;28;20053;-89
2023/02/28 09:34:21;;;;;;;4.78;1.63;;;2.90;99.90;;;;;;12462462;28;20053;-89
2023/02/28 09:40:25;;;;;;;4.45;1.65;;;3.30;99.90;;;;;;12446925;28;20049;-90
2023/02/28 09:46:34;;;;;;;2.50;1.50;;;3.50;99.90;;;;;;12423916;28;20076;-89
2023/02/28 09:52:36;;;;;;;4.43;2.15;;;3.50;99.90;;;;;;12446957;28;20071;-89
2023/02/28 09:58:56;;;;;;;3.90;1.80;;;3.90;99.90;;;;;;12464809;28;20057;-89
2023/02/28 10:05:05;;;;;;;8.63;1.77;;;3.60;99.90;;;;;;12467145;28;20061;-90
2023/02/28 10:11:11;;;;;;;3.20;1.55;;;3.80;99.90;;;;;;12467527;28;20079;-89
2023/02/28 10:17:27;;;;;;;4.20;1.75;;;3.90;99.90;;;;;;12462634;28;20132;-89
2023/02/28 10:23:34;;;;;;;3.60;1.70;;;4.00;99.90;;;;;;12465251;28;20038;-89
2023/02/28 10:29:37;;;;;;;6.00;2.03;;;4.10;99.90;;;;;;12442733;28;20060;-89
2023/02/28 10:35:39;;;;;;;4.20;1.67;;;4.00;99.90;;;;;;12464044;28;20056;-89
2023/02/28 10:41:43;;;;;;;3.22;1.25;;;4.30;99.90;;;;;;12462112;28;20103;-89
2023/02/28 10:47:56;;;;;;;2.30;1.13;;;4.60;99.90;;;;;;12463318;28;20057;-89
2023/02/28 10:53:58;;;;;;;3.50;1.10;;;4.50;99.90;;;;;;12452512;28;20041;-89
2023/02/28 11:00:33;;;;;;;2.60;1.30;;;4.70;99.90;;;;;;12445984;28;20223;-89
2023/02/28 11:06:35;;;;;;;1.95;0.90;;;4.80;99.90;;;;;;12442244;28;20088;-90
2023/02/28 11:12:41;;;;;;;2.15;0.98;;;5.10;99.90;;;;;;12439568;28;20350;-89
2023/02/28 11:18:55;;;;;;;3.40;1.20;;;5.20;99.90;;;;;;12387495;28;20467;-90
2023/02/28 11:25:01;;;;;;;4.67;1.20;;;5.00;99.90;;;;;;12433001;28;20053;-89
2023/02/28 11:31:05;;;;;;;3.30;1.00;;;4.20;99.90;;;;;;12449301;28;20049;-89
2023/02/28 11:37:13;;;;;;;1.97;1.17;;;4.80;99.90;;;;;;12428823;28;20053;-89
2023/02/28 11:43:51;;;;;;;2.67;1.52;;;5.10;99.90;;;;;;12452749;28;20485;-89
2023/02/28 11:50:32;;;;;;;1.95;1.05;;;4.30;99.90;;;;;;12441643;28;20072;-89
2023/02/28 11:56:43;;;;;;;2.63;1.20;;;4.60;99.90;;;;;;12478362;28;20038;-89
2023/02/28 12:03:23;;;;;;;2.08;1.00;;;4.40;99.90;;;;;;12469999;28;20304;-89
2023/02/28 12:09:57;;;;;;;2.58;1.00;;;4.60;99.90;;;;;;12465995;28;20413;-89
2023/02/28 12:16:20;;;;;;;3.03;1.27;;;5.10;99.90;;;;;;12471424;28;20091;-89
2023/02/28 12:22:41;;;;;;;2.20;1.00;;;5.70;99.90;;;;;;12468012;28;20080;-89
2023/02/28 12:28:49;;;;;;;2.72;0.95;;;5.70;99.90;;;;;;12488961;28;20049;-89
2023/02/28 12:34:57;;;;;;;3.28;1.15;;;5.40;99.90;;;;;;12473888;28;20504;-89
2023/02/28 12:41:15;;;;;;;2.10;0.95;;;5.60;99.90;;;;;;12472515;28;20046;-89
2023/02/28 12:47:18;;;;;;;4.65;1.30;;;5.50;99.90;;;;;;12460432;28;20477;-89
2023/02/28 12:53:30;;;;;;;2.60;1.30;;;5.40;99.90;;;;;;12478526;28;20055;-89
2023/02/28 12:59:40;;;;;;;2.65;1.20;;;5.30;99.90;;;;;;12484253;28;20103;-89
2023/02/28 13:05:51;;;;;;;3.33;1.20;;;5.20;99.90;;;;;;12473520;28;20058;-89
2023/02/28 13:11:54;;;;;;;2.72;1.15;;;5.10;99.90;;;;;;12446929;28;20116;-89
2023/02/28 13:17:59;;;;;;;2.85;1.20;;;5.10;99.90;;;;;;12466920;28;20094;-89
2023/02/28 13:24:04;;;;;;;4.63;1.60;;;5.10;99.90;;;;;;12478733;28;20053;-89
2023/02/28 13:30:50;;;;;;;3.95;1.77;;;5.40;99.90;;;;;;12462760;28;20065;-89
2023/02/28 13:37:22;;;;;;;3.45;1.30;;;5.20;99.90;;;;;;12466168;28;20050;-89
2023/02/28 13:43:58;;;;;;;5.63;1.60;;;5.20;99.90;;;;;;12458848;28;20053;-89
2023/02/28 13:50:19;;;;;;;2.95;1.08;;;5.20;99.90;;;;;;12477651;28;20057;-89
2023/02/28 13:56:49;;;;;;;4.95;1.30;;;5.10;99.90;;;;;;12430347;28;20094;-89
2023/02/28 14:03:20;;;;;;;3.65;1.38;;;5.20;99.90;;;;;;12456158;28;20049;-89
2023/02/28 14:09:33;;;;;;;1.98;1.10;;;5.10;99.90;;;;;;12459179;28;20054;-89
2023/02/28 14:15:46;;;;;;;3.85;1.27;;;4.90;99.90;;;;;;12472438;28;20041;-89
2023/02/28 14:22:24;;;;;;;2.53;1.10;;;4.90;99.90;;;;;;12464818;28;20081;-90
2023/02/28 14:28:48;;;;;;;2.53;1.10;;;4.80;99.90;;;;;;12466199;28;20053;-89
2023/02/28 14:35:01;;;;;;;3.67;1.40;;;4.80;99.90;;;;;;12456555;28;20409;-89
2023/02/28 14:41:12;;;;;;;3.45;1.23;;;4.70;99.90;;;;;;12463396;28;20069;-89
2023/02/28 14:47:16;;;;;;;3.08;1.60;;;4.80;99.90;;;;;;12426585;28;20049;-89
2023/02/28 14:53:20;;;;;;;3.00;1.52;;;4.80;99.90;;;;;;12462882;28;20099;-89
2023/02/28 14:59:24;;;;;;;;;;;4.70;99.90;;;;;;12449512;28;20136;-89
2023/02/28 15:05:32;;;;;;;5.30;1.30;;;4.70;99.90;;;;;;12472807;28;19921;-89
2023/02/28 15:11:35;;;;;;;3.03;1.45;;;4.60;99.90;;;;;;12476304;28;20163;-89
2023/02/28 15:17:37;;;;;;;6.38;1.98;;;4.60;99.90;;;;;;12470275;28;20492;-89
2023/02/28 15:23:43;;;;;;;5.57;1.92;;;4.70;99.90;;;;;;12473747;28;20061;-90
2023/02/28 15:29:51;;;;;;;5.68;1.88;;;4.60;99.90;;;;;;12476627;28;20541;-89
2023/02/28 15:36:17;;;;;;;3.80;1.77;;;4.50;99.90;;;;;;12472816;28;20444;-89
2023/02/28 15:42:21;;;;;;;5.90;1.58;;;4.50;99.90;;;;;;12463881;28;20041;-89
2023/02/28 15:48:30;;;;;;;3.10;1.40;;;4.40;99.90;;;;;;12451992;28;20057;-89
2023/02/28 15:54:34;;;;;;;4.30;1.65;;;4.40;99.90;;;;;;12448777;28;20556;-89
2023/02/28 16:00:36;;;;;;;3.83;1.80;;;4.30;99.90;;;;;;12474651;28;20041;-90
2023/02/28 16:06:41;;;;;;;6.00;1.80;;;4.20;99.90;;;;;;12473215;28;20049;-90
2023/02/28 16:12:43;;;;;;;;;;;4.20;99.90;;;;;;12484504;28;20049;-89
2023/02/28 16:18:45;;;;;;;3.42;1.60;;;4.10;99.90;;;;;;12473043;28;20616;-89
2023/02/28 16:24:47;;;;;;;3.10;1.70;;;4.00;99.90;;;;;;12465026;28;20061;-89
2023/02/28 16:30:51;;;;;;;4.15;1.75;;;3.70;99.90;;;;;;12467181;28;20072;-89
2023/02/28 16:36:53;;;;;;;;;;;3.60;99.90;;;;;;12471857;28;20502;-90
2023/02/28 16:42:59;;;;;;;4.95;1.77;;;3.60;99.90;;;;;;12446440;28;20523;-89
2023/02/28 16:49:01;;;;;;;3.40;1.80;;;3.60;99.90;;;;;;12451982;28;20057;-89
2023/02/28 16:55:02;;;;;;;5.88;2.08;;;3.40;99.90;;;;;;12444500;28;20045;-90
2023/02/28 17:01:04;;;;;;;4.15;2.03;;;3.30;99.90;;;;;;12464442;28;20590;-90
2023/02/28 17:07:13;;;;;;;5.68;2.70;;;3.10;99.90;;;;;;12448431;28;20486;-89
2023/02/28 17:13:14;;;;;;;4.00;1.70;;;3.00;99.90;;;;;;12430971;28;20049;-90
2023/02/28 17:19:16;;;;;;;9.07;2.22;;;2.80;99.90;;;;;;12460785;28;20056;-89
2023/02/28 17:25:20;;;;;;;5.15;2.22;;;2.70;99.90;;;;;;12446834;28;20049;-89
2023/02/28 17:31:25;;;;;;;4.05;2.42;;;2.60;99.90;;;;;;12467079;28;20049;-89
2023/02/28 17:37:27;;;;;;;4.72;2.72;;;2.50;99.90;;;;;;12469268;28;20402;-88
2023/02/28 17:43:29;;;;;;;8.60;2.40;;;2.60;99.90;;;;;;12462208;28;20481;-88
2023/02/28 17:49:33;;;;;;;5.95;2.10;;;2.60;99.90;;;;;;12458294;28;20065;-88
2023/02/28 17:55:35;;;;;;;5.05;2.40;;;2.50;99.90;;;;;;12449629;28;20033;-88
2023/02/28 18:01:37;;;;;;;5.28;2.45;;;2.50;99.90;;;;;;12464594;28;20506;-88
2023/02/28 18:07:40;;;;;;;4.80;2.45;;;2.50;99.90;;;;;;12489183;28;20079;-88
2023/02/28 18:13:50;;;;;;;7.10;2.75;;;2.30;99.90;;;;;;12452131;28;20071;-88
2023/02/28 18:19:52;;;;;;;5.78;2.65;;;2.30;99.90;;;;;;12463186;28;20053;-88
2023/02/28 18:25:54;;;;;;;5.95;2.72;;;2.10;99.90;;;;;;12466154;28;20060;-88
2023/02/28 18:31:56;;;;;;;7.90;2.80;;;2.10;99.90;;;;;;12459635;28;20041;-88
2023/02/28 18:37:58;;;;;;;6.85;2.92;;;2.10;99.90;;;;;;12466688;28;20362;-87
2023/02/28 18:44:01;;;;;;;7.00;2.50;;;1.80;99.90;;;;;;12458001;28;20064;-88
2023/02/28 18:50:14;;;;;;;5.75;3.20;;;1.50;99.90;;;;;;12460035;28;20061;-88
2023/02/28 18:56:18;;;;;;;6.63;2.67;;;1.40;99.90;;;;;;12429371;28;20119;-88
2023/02/28 19:02:20;;;;;;;4.85;2.38;;;1.20;99.90;;;;;;12457763;28;20045;-88
2023/02/28 19:08:23;;;;;;;6.97;2.72;;;1.00;99.90;;;;;;12466190;28;20179;-88
2023/02/28 19:14:25;;;;;;;4.28;2.50;;;0.90;99.90;;;;;;12446143;28;20405;-88
2023/02/28 19:20:27;;;;;;;7.07;3.25;;;0.90;99.90;;;;;;12461953;28;20072;-87
2023/02/28 19:26:28;;;;;;;6.20;2.70;;;0.70;99.90;;;;;;12461191;28;20049;-87
2023/02/28 19:32:31;;;;;;;5.80;2.85;;;0.50;99.90;;;;;;12487574;28;20053;-87
2023/02/28 19:38:33;;;;;;;8.48;3.28;;;0.50;99.90;;;;;;12466057;28;20060;-87
2023/02/28 19:44:35;;;;;;;7.10;3.30;;;0.30;99.90;;;;;;12472496;28;20053;-87
2023/02/28 19:50:37;;;;;;;6.70;3.92;;;0.20;99.90;;;;;;12472886;28;20033;-88
2023/02/28 19:56:39;;;;;;;5.30;3.17;;;0.20;99.90;;;;;;12484540;28;20857;-88
2023/02/28 20:02:42;;;;;;;8.05;3.25;;;0.20;99.90;;;;;;12463144;28;20045;-87
2023/02/28 20:08:44;;;;;;;8.95;3.80;;;0.20;99.90;;;;;;12460417;28;20053;-87
2023/02/28 20:14:46;;;;;;;6.57;3.30;;;0.20;99.90;;;;;;12461018;28;20046;-87
2023/02/28 20:20:48;;;;;;;8.10;3.30;;;0.20;99.90;;;;;;12475864;28;20638;-88
2023/02/28 20:26:51;;;;;;;7.43;3.25;;;0.00;99.90;;;;;;12470225;28;20055;-88
2023/02/28 20:32:53;;;;;;;7.03;4.05;;;0.00;99.90;;;;;;12472331;28;20090;-88
2023/02/28 20:38:55;;;;;;;8.65;3.78;;;-0.20;99.90;;;;;;12470899;28;20102;-88
2023/02/28 20:44:57;;;;;;;8.10;4.78;;;-0.40;99.90;;;;;;12465722;28;20077;-87
2023/02/28 20:50:59;;;;;;;15.07;7.10;;;-0.50;99.90;;;;;;12477997;28;20069;-88
2023/02/28 20:57:01;;;;;;;28.55;10.68;;;-0.40;99.90;;;;;;12455735;28;20041;-87
2023/02/28 21:03:03;;;;;;;12.15;5.72;;;-0.30;99.90;;;;;;12443243;28;20460;-87
2023/02/28 21:09:07;;;;;;;14.48;5.97;;;-0.40;99.90;;;;;;12463598;28;20481;-87
2023/02/28 21:15:09;;;;;;;17.02;6.47;;;-0.30;99.90;;;;;;12462339;28;20045;-87
2023/02/28 21:21:13;;;;;;;7.03;3.38;;;-0.30;99.90;;;;;;12473984;28;20050;-87
2023/02/28 21:27:15;;;;;;;;;;;-0.40;99.90;;;;;;12452234;28;20095;-87
2023/02/28 21:33:17;;;;;;;7.32;3.55;;;-0.60;99.90;;;;;;12443289;28;19948;-87
2023/02/28 21:39:24;;;;;;;8.68;3.33;;;-0.60;99.90;;;;;;12459517;28;20103;-87
2023/02/28 21:45:28;;;;;;;7.20;3.80;;;-0.60;99.90;;;;;;12437114;28;20110;-87
2023/02/28 21:51:30;;;;;;;7.53;3.42;;;-0.60;99.90;;;;;;12452060;28;20046;-87
2023/02/28 21:57:34;;;;;;;7.00;3.38;;;-0.40;99.90;;;;;;12433988;28;20049;-87
2023/02/28 22:03:37;;;;;;;10.77;3.90;;;-0.30;99.90;;;;;;12431232;28;20350;-87
2023/02/28 22:09:38;;;;;;;5.95;3.80;;;-0.50;99.90;;;;;;12447831;28;20049;-87
2023/02/28 22:15:40;;;;;;;7.43;3.22;;;-0.60;99.90;;;;;;12457545;28;20045;-87
2023/02/28 22:21:43;;;;;;;7.28;4.00;;;-0.40;99.90;;;;;;12442827;28;20072;-87
2023/02/28 22:27:45;;;;;;;6.47;3.17;;;-0.70;99.90;;;;;;12442343;28;20164;-87
2023/02/28 22:33:49;;;;;;;7.63;3.90;;;-0.70;99.90;;;;;;12446291;28;20107;-87
2023/02/28 22:39:50;;;;;;;6.60;3.22;;;-0.80;99.90;;;;;;12430493;28;20038;-87
2023/02/28 22:45:53;;;;;;;6.53;3.58;;;-0.70;99.90;;;;;;12456796;28;20392;-87
2023/02/28 22:51:54;;;;;;;8.43;3.38;;;-0.80;99.90;;;;;;12439875;28;20258;-87
2023/02/28 22:57:56;;;;;;;6.95;3.78;;;-0.70;99.90;;;;;;12457435;28;20038;-87
2023/02/28 23:03:59;;;;;;;9.95;3.33;;;-0.70;99.90;;;;;;12467270;28;20784;-87
2023/02/28 23:10:07;;;;;;;9.35;4.07;;;-0.80;99.90;;;;;;12458404;28;20056;-87
2023/02/28 23:16:09;;;;;;;8.75;4.32;;;-1.00;99.90;;;;;;12450929;28;20041;-87
2023/02/28 23:22:11;;;;;;;7.18;3.92;;;-1.10;99.90;;;;;;12467782;28;20060;-87
2023/02/28 23:28:13;;;;;;;8.45;4.57;;;-1.20;99.90;;;;;;12467373;28;20045;-87
2023/02/28 23:34:16;;;;;;;7.45;3.97;;;-1.20;99.90;;;;;;12450470;28;20050;-87
2023/02/28 23:40:18;;;;;;;6.65;3.50;;;-1.20;99.90;;;;;;12457157;28;20041;-87
2023/02/28 23:46:21;;;;;;;9.13;3.95;;;-1.30;99.90;;;;;;12448068;28;20076;-86
2023/02/28 23:52:22;;;;;;;9.75;4.72;;;-1.50;99.90;;;;;;12455072;28;20103;-87
2023/02/28 23:58:24;;;;;;;8.60;4.97;;;-1.50;99.90;;;;;;12453509;28;20064;-87
